createdAt,value
2023-07-06T00:01:53.912Z,100996.38
2023-07-06T00:04:25.344Z,101000.78
2023-07-06T00:06:55.573Z,100998.00
2023-07-06T00:09:25.741Z,101005.16
2023-07-06T00:11:56.024Z,101006.28
2023-07-06T00:14:27.821Z,101011.66
2023-07-06T00:17:17.942Z,101012.31
2023-07-06T00:19:50.701Z,101009.22
2023-07-06T00:22:22.094Z,101018.31
2023-07-06T00:24:52.477Z,101019.94
2023-07-06T00:27:24.073Z,101016.38
2023-07-06T00:30:00.245Z,101018.31
2023-07-06T00:32:31.911Z,101019.94
2023-07-06T00:35:03.229Z,101025.78
2023-07-06T00:37:33.003Z,101028.72
2023-07-06T00:40:03.715Z,101038.47
2023-07-06T00:42:34.076Z,101044.50
2023-07-06T00:45:06.253Z,101040.09
2023-07-06T00:47:59.435Z,101045.00
2023-07-06T00:50:36.123Z,101039.78
2023-07-06T00:53:14.895Z,101052.97
2023-07-06T00:55:45.178Z,101049.88
2023-07-06T00:58:35.482Z,101040.78
2023-07-06T01:01:09.960Z,101041.91
2023-07-06T01:03:52.493Z,101040.78
2023-07-06T01:06:29.683Z,101036.06
2023-07-06T01:09:01.713Z,101038.03
2023-07-06T01:11:32.068Z,101047.09
2023-07-06T01:14:04.218Z,101051.50
2023-07-06T01:16:45.720Z,101054.25
2023-07-06T01:19:34.124Z,101044.56
2023-07-06T01:22:20.791Z,101050.06
2023-07-06T01:25:20.486Z,101059.50
2023-07-06T01:28:02.497Z,101059.50
2023-07-06T01:30:56.119Z,101065.31
2023-07-06T01:33:45.956Z,101058.16
2023-07-06T01:36:25.809Z,101065.00
2023-07-06T01:39:22.417Z,101069.19
2023-07-06T01:42:35.727Z,101071.50
2023-07-06T01:45:07.935Z,101067.16
2023-07-06T01:47:45.766Z,101079.44
2023-07-06T01:50:18.952Z,101073.97
2023-07-06T01:53:11.362Z,101081.13
2023-07-06T01:55:56.691Z,101073.66
2023-07-06T01:58:36.104Z,101071.72
2023-07-06T02:01:12.463Z,101072.22
2023-07-06T02:03:45.230Z,101075.28
2023-07-06T02:06:17.485Z,101075.28
2023-07-06T02:08:47.628Z,101082.16
2023-07-06T02:11:21.505Z,101082.94
2023-07-06T02:13:51.763Z,101082.63
2023-07-06T02:16:24.909Z,101084.06
2023-07-06T02:18:56.953Z,101086.22
2023-07-06T02:21:27.079Z,101081.47
2023-07-06T02:23:57.222Z,101095.94
2023-07-06T02:26:29.527Z,101092.25
2023-07-06T02:28:59.757Z,101093.53
2023-07-06T02:31:29.952Z,101093.00
2023-07-06T02:34:00.123Z,101101.94
2023-07-06T02:36:30.586Z,101102.97
2023-07-06T02:39:01.156Z,101098.38
2023-07-06T02:41:32.110Z,101104.25
2023-07-06T02:44:02.335Z,101102.16
2023-07-06T02:46:33.337Z,101093.00
2023-07-06T02:49:03.682Z,101092.91
2023-07-06T02:51:35.930Z,101098.38
2023-07-06T02:54:06.985Z,101096.06
2023-07-06T02:56:37.232Z,101094.38
2023-07-06T02:59:07.885Z,101099.84
2023-07-06T03:01:38.702Z,101104.59
2023-07-06T03:04:14.900Z,101097.50
2023-07-06T03:06:45.087Z,101082.31
2023-07-06T03:09:15.591Z,101080.84
2023-07-06T03:11:47.788Z,101078.16
2023-07-06T03:14:18.201Z,101081.03
2023-07-06T03:16:48.554Z,101075.59
2023-07-06T03:19:19.232Z,101074.28
2023-07-06T03:21:50.104Z,101070.56
2023-07-06T03:24:20.525Z,101074.16
2023-07-06T03:26:50.831Z,101058.38
2023-07-06T03:29:21.099Z,101068.75
2023-07-06T03:31:51.398Z,101059.13
2023-07-06T03:34:22.773Z,101061.59
2023-07-06T03:36:52.560Z,101061.75
2023-07-06T03:39:22.963Z,101046.94
2023-07-06T03:41:55.941Z,101053.31
2023-07-06T03:44:28.053Z,101049.72
2023-07-06T03:46:58.989Z,101046.44
2023-07-06T03:49:29.136Z,101040.09
2023-07-06T03:51:59.682Z,101030.34
2023-07-06T03:54:29.837Z,101037.81
2023-07-06T03:57:01.002Z,101038.16
2023-07-06T03:59:35.281Z,101037.16
2023-07-06T04:02:06.021Z,101031.69
2023-07-06T04:04:37.499Z,101030.06
2023-07-06T04:07:07.976Z,101035.59
2023-07-06T04:09:39.991Z,101030.44
2023-07-06T04:12:11.566Z,101028.81
2023-07-06T04:14:43.330Z,101021.97
2023-07-06T04:17:14.177Z,101021.47
2023-07-06T04:19:44.345Z,101019.56
2023-07-06T04:22:14.422Z,101018.22
2023-07-06T04:24:44.488Z,101017.75
2023-07-06T04:27:15.604Z,101014.16
2023-07-06T04:29:47.668Z,101011.56
2023-07-06T04:32:17.855Z,101018.22
2023-07-06T04:34:48.038Z,101012.09
2023-07-06T04:37:18.308Z,101013.56
2023-07-06T04:39:51.722Z,101008.66
2023-07-06T04:42:23.051Z,101004.28
2023-07-06T04:44:52.834Z,101006.53
2023-07-06T04:47:26.781Z,101000.22
2023-07-06T04:49:58.075Z,100987.84
2023-07-06T04:52:27.888Z,100981.69
2023-07-06T04:54:57.985Z,100983.66
2023-07-06T04:57:28.882Z,100977.63
2023-07-06T05:00:00.062Z,100984.44
2023-07-06T05:02:33.721Z,100981.19
2023-07-06T05:05:06.591Z,100981.84
2023-07-06T05:07:38.393Z,100978.91
2023-07-06T05:10:09.938Z,100980.25
2023-07-06T05:12:40.094Z,100963.00
2023-07-06T05:15:11.100Z,100969.19
2023-07-06T05:17:45.860Z,100970.78
2023-07-06T05:20:19.165Z,100967.06
2023-07-06T05:22:51.980Z,100954.72
2023-07-06T05:25:23.093Z,100950.16
2023-07-06T05:27:53.409Z,100948.88
2023-07-06T05:30:23.967Z,100950.16
2023-07-06T05:32:54.716Z,100937.97
2023-07-06T05:35:26.924Z,100936.03
2023-07-06T05:37:57.985Z,100930.66
2023-07-06T05:40:28.269Z,100928.19
2023-07-06T05:42:58.627Z,100930.19
2023-07-06T05:45:29.720Z,100930.31
2023-07-06T05:47:59.992Z,100921.53
2023-07-06T05:50:30.500Z,100929.34
2023-07-06T05:53:01.563Z,100923.19
2023-07-06T05:55:33.103Z,100920.56
2023-07-06T05:58:03.302Z,100920.75
2023-07-06T06:00:39.344Z,100911.47
2023-07-06T06:03:10.067Z,100911.97
2023-07-06T06:05:40.259Z,100909.03
2023-07-06T06:08:10.472Z,100903.81
2023-07-06T06:10:40.579Z,100905.13
2023-07-06T06:13:10.757Z,100903.19
2023-07-06T06:15:41.270Z,100891.97
2023-07-06T06:18:13.017Z,100895.03
2023-07-06T06:20:47.929Z,100891.97
2023-07-06T06:23:19.495Z,100886.94
2023-07-06T06:25:50.343Z,100888.56
2023-07-06T06:28:23.686Z,100878.63
2023-07-06T06:30:54.914Z,100885.31
2023-07-06T06:33:24.521Z,100879.28
2023-07-06T06:35:55.933Z,100876.81
2023-07-06T06:38:26.340Z,100871.78
2023-07-06T06:40:56.469Z,100872.13
2023-07-06T06:43:26.956Z,100862.69
2023-07-06T06:45:57.526Z,100852.13
2023-07-06T06:48:27.842Z,100856.19
2023-07-06T06:50:59.843Z,100849.66
2023-07-06T06:53:30.657Z,100844.63
2023-07-06T06:56:01.664Z,100843.00
2023-07-06T06:58:31.841Z,100834.56
2023-07-06T07:01:06.327Z,100828.53
2023-07-06T07:03:39.640Z,100815.19
2023-07-06T07:06:15.423Z,100818.75
2023-07-06T07:08:47.272Z,100812.75
2023-07-06T07:11:23.826Z,100809.66
2023-07-06T07:13:56.109Z,100802.84
2023-07-06T07:16:27.166Z,100809.66
2023-07-06T07:18:58.194Z,100800.91
2023-07-06T07:21:30.371Z,100796.66
2023-07-06T07:24:00.577Z,100796.00
2023-07-06T07:26:31.502Z,100796.97
2023-07-06T07:29:02.473Z,100795.38
2023-07-06T07:31:32.793Z,100790.63
2023-07-06T07:34:03.338Z,100784.31
2023-07-06T07:36:35.317Z,100780.41
2023-07-06T07:39:08.299Z,100776.31
2023-07-06T07:41:38.696Z,100774.53
2023-07-06T07:44:08.900Z,100767.22
2023-07-06T07:46:39.169Z,100753.38
2023-07-06T07:49:10.703Z,100749.47
2023-07-06T07:51:41.469Z,100742.81
2023-07-06T07:54:11.650Z,100744.94
2023-07-06T07:56:41.879Z,100739.91
2023-07-06T07:59:14.871Z,100738.41
2023-07-06T08:01:55.320Z,100728.97
2023-07-06T08:04:25.521Z,100730.75
2023-07-06T08:06:57.888Z,100722.16
2023-07-06T08:09:28.182Z,100722.31
2023-07-06T08:11:58.319Z,100708.00
2023-07-06T08:14:41.381Z,100701.78
2023-07-06T08:17:14.013Z,100699.84
2023-07-06T08:20:20.265Z,100695.78
2023-07-06T08:22:36.296Z,100696.75
2023-07-06T08:25:15.012Z,100691.38
2023-07-06T08:27:45.328Z,100685.69
2023-07-06T08:30:16.221Z,100690.22
2023-07-06T08:32:46.485Z,100685.22
2023-07-06T08:35:16.627Z,100685.22
2023-07-06T08:37:47.645Z,100677.84
2023-07-06T08:40:23.519Z,100676.53
2023-07-06T08:42:53.989Z,100679.47
2023-07-06T08:45:34.809Z,100675.56
2023-07-06T08:48:06.484Z,100666.78
2023-07-06T08:50:40.205Z,100671.97
2023-07-06T08:53:18.040Z,100664.97
2023-07-06T08:55:49.307Z,100664.50
2023-07-06T08:58:39.766Z,100652.25
2023-07-06T09:01:22.340Z,100652.78
2023-07-06T09:03:59.573Z,100644.28
2023-07-06T09:06:32.359Z,100641.41
2023-07-06T09:09:08.028Z,100640.22
2023-07-06T09:11:39.863Z,100640.38
2023-07-06T09:14:14.459Z,100638.09
2023-07-06T09:16:59.370Z,100635.19
2023-07-06T09:19:30.098Z,100632.75
2023-07-06T09:22:00.239Z,100636.66
2023-07-06T09:24:33.627Z,100638.91
2023-07-06T09:27:12.395Z,100632.72
2023-07-06T09:29:42.793Z,100633.41
2023-07-06T09:32:17.387Z,100632.41
2023-07-06T09:34:50.928Z,100626.06
2023-07-06T09:37:25.937Z,100627.84
2023-07-06T09:40:04.163Z,100621.34
2023-07-06T09:42:36.380Z,100623.25
2023-07-06T09:45:33.720Z,100622.25
2023-07-06T09:48:17.371Z,100626.69
2023-07-06T09:50:55.271Z,100627.50
2023-07-06T09:53:32.816Z,100631.69
2023-07-06T09:56:03.207Z,100628.97
2023-07-06T09:58:37.059Z,100633.81
2023-07-06T10:01:21.988Z,100648.97
2023-07-06T10:04:16.900Z,100644.56
2023-07-06T10:06:52.878Z,100645.56
2023-07-06T10:09:29.156Z,100646.84
2023-07-06T10:12:09.934Z,100641.81
2023-07-06T10:14:47.784Z,100640.81
2023-07-06T10:17:40.967Z,100633.19
2023-07-06T10:20:39.779Z,100632.38
2023-07-06T10:23:29.204Z,100639.50
2023-07-06T10:26:20.615Z,100637.72
2023-07-06T10:28:54.895Z,100632.03
2023-07-06T10:31:34.770Z,100629.88
2023-07-06T10:34:41.845Z,100634.59
2023-07-06T10:37:18.534Z,100635.41
2023-07-06T10:39:48.637Z,100641.28
2023-07-06T10:42:35.380Z,100645.34
2023-07-06T10:45:06.072Z,100636.56
2023-07-06T10:47:39.312Z,100638.50
2023-07-06T10:50:12.097Z,100634.59
2023-07-06T10:52:46.436Z,100633.94
2023-07-06T10:55:27.501Z,100638.81
2023-07-06T10:58:08.450Z,100635.41
2023-07-06T11:00:41.390Z,100638.81
2023-07-06T11:03:20.601Z,100638.66
2023-07-06T11:06:11.167Z,100641.44
2023-07-06T11:09:17.824Z,100647.72
2023-07-06T11:11:58.439Z,100644.34
2023-07-06T11:14:35.118Z,100646.50
2023-07-06T11:17:24.346Z,100644.69
2023-07-06T11:20:12.252Z,100643.00
2023-07-06T11:22:44.281Z,100644.81
2023-07-06T11:25:18.334Z,100644.34
2023-07-06T11:27:52.353Z,100645.78
2023-07-06T11:30:32.265Z,100645.97
2023-07-06T11:33:44.150Z,100655.41
2023-07-06T11:36:45.339Z,100666.59
2023-07-06T11:39:38.433Z,100678.63
2023-07-06T11:42:20.621Z,100670.84
2023-07-06T11:44:54.721Z,100684.22
2023-07-06T11:47:37.890Z,100690.72
2023-07-06T11:50:17.039Z,100688.09
2023-07-06T11:53:01.673Z,100692.00
2023-07-06T11:55:53.592Z,100694.13
2023-07-06T11:58:35.019Z,100694.28
2023-07-06T12:01:14.407Z,100707.81
2023-07-06T12:03:44.730Z,100713.97
2023-07-06T12:06:23.428Z,100714.47
2023-07-06T12:08:53.654Z,100719.53
2023-07-06T12:11:26.727Z,100722.28
2023-07-06T12:13:59.877Z,100722.59
2023-07-06T12:16:35.142Z,100721.97
2023-07-06T12:19:13.891Z,100725.88
2023-07-06T12:21:55.798Z,100723.09
2023-07-06T12:24:28.871Z,100719.03
2023-07-06T12:27:05.221Z,100730.91
2023-07-06T12:29:36.402Z,100736.59
2023-07-06T12:32:15.296Z,100750.91
2023-07-06T12:34:49.619Z,100791.00
2023-07-06T12:37:22.833Z,100801.91
2023-07-06T12:39:54.313Z,100814.59
2023-07-06T12:42:25.726Z,100809.22
2023-07-06T12:44:57.041Z,100813.63
2023-07-06T12:47:40.682Z,100830.22
2023-07-06T12:50:41.395Z,100829.88
2023-07-06T12:53:26.057Z,100857.75
2023-07-06T12:56:10.131Z,100845.09
2023-07-06T12:58:41.609Z,100834.53
2023-07-06T13:01:14.819Z,100845.59
2023-07-06T13:03:50.173Z,100855.69
2023-07-06T13:06:20.517Z,100852.25
2023-07-06T13:08:51.110Z,100842.81
2023-07-06T13:11:25.247Z,100820.00
2023-07-06T13:14:00.712Z,100810.28
2023-07-06T13:16:42.502Z,100823.63
2023-07-06T13:19:19.160Z,100827.03
2023-07-06T13:21:49.766Z,100841.03
2023-07-06T13:24:27.111Z,100825.75
2023-07-06T13:26:59.219Z,100825.91
2023-07-06T13:29:31.345Z,100833.41
2023-07-06T13:32:03.923Z,100850.66
2023-07-06T13:34:35.399Z,100856.47
2023-07-06T13:37:06.241Z,100856.47
2023-07-06T13:39:36.363Z,100866.13
2023-07-06T13:42:06.554Z,100869.19
2023-07-06T13:47:02.768Z,100890.53
2023-07-06T13:49:33.011Z,100900.94
2023-07-06T13:52:03.186Z,100900.75
2023-07-06T13:54:33.345Z,100903.22
2023-07-06T13:57:03.486Z,100902.88
2023-07-06T13:59:33.782Z,100906.97
2023-07-06T14:02:07.836Z,100918.03
2023-07-06T14:04:38.103Z,100926.97
2023-07-06T14:07:08.446Z,100925.00
2023-07-06T14:09:39.075Z,100926.59
2023-07-06T14:12:10.584Z,100935.75
2023-07-06T14:14:40.989Z,100943.03
2023-07-06T14:17:11.064Z,100953.28
2023-07-06T14:19:53.619Z,100952.59
2023-07-06T14:22:28.162Z,100963.53
2023-07-06T14:24:58.405Z,100957.69
2023-07-06T14:27:29.185Z,100968.72
2023-07-06T14:30:00.617Z,100975.06
2023-07-06T14:32:31.330Z,100976.22
2023-07-06T14:35:01.557Z,100976.41
2023-07-06T14:37:32.231Z,100983.75
2023-07-06T14:40:02.456Z,100978.19
2023-07-06T14:42:32.547Z,100987.19
2023-07-06T14:45:02.964Z,100986.03
2023-07-06T14:47:33.198Z,100985.69
2023-07-06T14:50:04.146Z,100984.91
2023-07-06T14:52:35.676Z,100994.13
2023-07-06T14:55:06.743Z,100995.97
2023-07-06T14:57:37.130Z,101002.13
2023-07-06T15:00:09.624Z,101000.19
2023-07-06T15:02:40.085Z,101007.34
2023-07-06T15:05:11.778Z,101008.97
2023-07-06T15:07:44.246Z,101013.69
2023-07-06T15:10:16.027Z,101011.75
2023-07-06T15:12:46.854Z,101024.44
2023-07-06T15:15:18.207Z,101021.66
2023-07-06T15:17:48.539Z,101025.41
2023-07-06T15:20:19.452Z,101018.25
2023-07-06T15:22:50.729Z,101028.66
2023-07-06T15:25:20.462Z,101028.16
2023-07-06T15:27:50.644Z,101022.41
2023-07-06T15:30:20.838Z,101018.53
2023-07-06T15:32:51.162Z,101012.50
2023-07-06T15:35:21.563Z,101014.44
2023-07-06T15:37:51.784Z,101019.88
2023-07-06T15:40:22.102Z,101034.34
2023-07-06T15:42:54.260Z,101040.88
2023-07-06T15:45:24.539Z,101036.66
2023-07-06T15:47:58.612Z,101044.31
2023-07-06T15:50:29.841Z,101041.19
2023-07-06T15:53:00.028Z,101038.78
2023-07-06T15:55:30.232Z,101037.63
2023-07-06T15:58:04.776Z,101037.28
2023-07-06T16:00:35.475Z,101036.50
2023-07-06T16:03:05.908Z,101039.72
2023-07-06T16:05:36.179Z,101038.94
2023-07-06T16:08:06.381Z,101042.34
2023-07-06T16:10:41.590Z,101040.72
2023-07-06T16:13:11.842Z,101045.25
2023-07-06T16:15:42.782Z,101033.41
2023-07-06T16:18:13.883Z,101029.63
2023-07-06T16:20:54.728Z,101034.53
2023-07-06T16:23:24.994Z,101031.28
2023-07-06T16:25:56.410Z,101036.81
2023-07-06T16:28:26.647Z,101026.56
2023-07-06T16:31:01.413Z,101028.00
2023-07-06T16:33:31.595Z,101013.88
2023-07-06T16:36:02.339Z,101019.72
2023-07-06T16:38:32.611Z,101021.84
2023-07-06T16:41:11.599Z,101018.91
2023-07-06T16:43:42.667Z,101016.47
2023-07-06T16:46:13.237Z,101013.19
2023-07-06T16:48:43.978Z,101010.28
2023-07-06T16:51:14.223Z,101008.34
2023-07-06T16:53:46.892Z,101007.50
2023-07-06T16:56:17.121Z,101004.09
2023-07-06T16:58:47.382Z,100999.06
2023-07-06T17:01:17.685Z,100999.34
2023-07-06T17:03:49.363Z,100990.09
2023-07-06T17:06:20.231Z,100995.78
2023-07-06T17:08:50.284Z,100995.47
2023-07-06T17:11:20.510Z,100989.28
2023-07-06T17:13:50.820Z,100989.75
2023-07-06T17:16:21.035Z,100985.06
2023-07-06T17:18:53.266Z,100979.34
2023-07-06T17:21:23.440Z,100978.22
2023-07-06T17:23:53.846Z,100973.50
2023-07-06T17:26:24.058Z,100972.53
2023-07-06T17:28:54.306Z,100970.41
2023-07-06T17:31:25.395Z,100974.00
2023-07-06T17:33:55.580Z,100976.28
2023-07-06T17:36:25.847Z,100970.09
2023-07-06T17:38:56.123Z,100971.22
2023-07-06T17:41:26.324Z,100965.22
2023-07-06T17:43:56.859Z,100964.06
2023-07-06T17:46:27.006Z,100964.06
2023-07-06T17:48:57.099Z,100966.84
2023-07-06T17:51:27.672Z,100962.94
2023-07-06T17:53:58.612Z,100965.22
2023-07-06T17:56:28.744Z,100957.88
2023-07-06T17:58:58.842Z,100968.97
2023-07-06T18:01:29.497Z,100962.94
2023-07-06T18:03:59.650Z,100960.16
2023-07-06T18:06:30.334Z,100954.63
2023-07-06T18:09:00.471Z,100954.63
2023-07-06T18:11:30.614Z,100962.59
2023-07-06T18:14:00.943Z,100957.53
2023-07-06T18:16:31.065Z,100958.34
2023-07-06T18:19:01.289Z,100952.66
2023-07-06T18:21:32.154Z,100941.28
2023-07-06T18:24:02.236Z,100939.66
2023-07-06T18:26:32.363Z,100945.34
2023-07-06T18:29:02.446Z,100945.19
2023-07-06T18:31:33.195Z,100946.47
2023-07-06T18:34:03.721Z,100934.59
2023-07-06T18:36:33.964Z,100933.44
2023-07-06T18:39:04.174Z,100932.81
2023-07-06T18:41:34.873Z,100930.69
2023-07-06T18:44:05.206Z,100938.19
2023-07-06T18:46:35.411Z,100946.97
2023-07-06T18:49:06.893Z,100944.06
2023-07-06T18:51:38.262Z,100944.06
2023-07-06T18:54:08.424Z,100939.66
2023-07-06T18:56:39.292Z,100940.94
2023-07-06T18:59:09.389Z,100941.94
2023-07-06T19:01:40.003Z,100938.03
2023-07-06T19:04:10.172Z,100938.19
2023-07-06T19:06:41.426Z,100939.16
2023-07-06T19:09:11.302Z,100937.53
2023-07-06T19:11:41.970Z,100925.34
2023-07-06T19:14:12.083Z,100920.94
2023-07-06T19:16:42.288Z,100919.31
2023-07-06T19:19:12.604Z,100920.94
2023-07-06T19:21:43.832Z,100936.41
2023-07-06T19:24:14.537Z,100935.91
2023-07-06T19:26:45.664Z,100939.16
2023-07-06T19:29:16.723Z,100939.97
2023-07-06T19:31:48.441Z,100928.09
2023-07-06T19:34:19.424Z,100941.09
2023-07-06T19:36:51.206Z,100939.16
2023-07-06T19:39:21.350Z,100931.66
2023-07-06T19:41:51.430Z,100939.97
2023-07-06T19:44:21.585Z,100933.78
2023-07-06T19:46:51.821Z,100930.53
2023-07-06T19:49:21.996Z,100934.13
2023-07-06T19:51:52.548Z,100936.56
2023-07-06T19:54:23.000Z,100937.38
2023-07-06T19:56:53.444Z,100929.56
2023-07-06T19:59:23.600Z,100925.66
2023-07-06T20:01:53.777Z,100915.06
2023-07-06T20:04:23.866Z,100911.16
2023-07-06T20:06:54.046Z,100920.59
2023-07-06T20:09:24.540Z,100924.50
2023-07-06T20:11:54.954Z,100917.84
2023-07-06T20:14:25.087Z,100911.03
2023-07-06T20:16:56.722Z,100918.97
2023-07-06T20:19:27.169Z,100914.59
2023-07-06T20:21:57.295Z,100925.84
2023-07-06T20:24:27.451Z,100930.38
2023-07-06T20:26:57.541Z,100928.41
2023-07-06T20:29:28.293Z,100925.97
2023-07-06T20:31:58.452Z,100909.41
2023-07-06T20:34:28.636Z,100913.28
2023-07-06T20:36:58.832Z,100901.88
2023-07-06T20:39:29.006Z,100899.47
2023-07-06T20:42:00.411Z,100898.19
2023-07-06T20:44:30.627Z,100904.66
2023-07-06T20:47:01.465Z,100887.25
2023-07-06T20:49:31.633Z,100891.81
2023-07-06T20:52:01.863Z,100893.94
2023-07-06T20:54:32.810Z,100890.19
2023-07-06T20:57:03.066Z,100889.88
2023-07-06T20:59:33.233Z,100886.28
2023-07-06T21:02:03.465Z,100896.22
2023-07-06T21:04:33.650Z,100889.69
2023-07-06T21:07:03.992Z,100893.94
2023-07-06T21:09:34.645Z,100891.81
2023-07-06T21:12:04.984Z,100881.88
2023-07-06T21:14:37.105Z,100891.00
2023-07-06T21:17:10.424Z,100886.94
2023-07-06T21:19:41.645Z,100893.78
2023-07-06T21:22:13.123Z,100893.28
2023-07-06T21:24:43.429Z,100896.41
2023-07-06T21:27:15.807Z,100881.75
2023-07-06T21:29:46.700Z,100880.09
2023-07-06T21:32:16.951Z,100893.13
2023-07-06T21:34:47.427Z,100880.91
2023-07-06T21:37:17.596Z,100887.72
2023-07-06T21:39:49.127Z,100886.78
2023-07-06T21:42:19.455Z,100886.28
2023-07-06T21:44:51.300Z,100898.19
2023-07-06T21:47:22.780Z,100897.34
2023-07-06T21:49:53.062Z,100894.59
2023-07-06T21:52:23.223Z,100883.53
2023-07-06T21:54:53.335Z,100881.25
2023-07-06T21:57:23.421Z,100879.44
2023-07-06T21:59:53.612Z,100880.25
2023-07-06T22:02:23.856Z,100879.78
2023-07-06T22:04:54.291Z,100881.56
2023-07-06T22:07:25.100Z,100881.72
2023-07-06T22:09:55.228Z,100883.69
2023-07-06T22:12:25.392Z,100888.06
2023-07-06T22:14:55.578Z,100891.13
2023-07-06T22:17:25.786Z,100897.50
2023-07-06T22:19:55.995Z,100900.28
2023-07-06T22:22:26.360Z,100901.41
2023-07-06T22:24:56.576Z,100896.66
2023-07-06T22:27:27.218Z,100899.78
2023-07-06T22:29:58.884Z,100895.38
2023-07-06T22:32:30.058Z,100900.56
2023-07-06T22:34:59.881Z,100890.34
2023-07-06T22:37:30.089Z,100900.09
2023-07-06T22:40:00.327Z,100898.16
2023-07-06T22:42:31.029Z,100891.47
2023-07-06T22:45:01.293Z,100899.78
2023-07-06T22:47:33.103Z,100900.28
2023-07-06T22:50:04.083Z,100898.78
2023-07-06T22:52:34.151Z,100895.19
2023-07-06T22:57:01.812Z,100898.63
2023-07-06T22:59:33.153Z,100893.75
2023-07-06T23:02:06.318Z,100893.09
2023-07-06T23:04:36.434Z,100887.88
2023-07-06T23:07:06.791Z,100890.66
2023-07-06T23:09:36.961Z,100891.13
2023-07-06T23:12:07.969Z,100895.88
2023-07-06T23:14:38.236Z,100892.63
2023-07-06T23:17:08.570Z,100894.25
2023-07-06T23:19:41.306Z,100899.28
2023-07-06T23:22:11.949Z,100901.22
2023-07-06T23:24:43.175Z,100905.63
2023-07-06T23:27:13.271Z,100898.16
2023-07-06T23:29:43.383Z,100900.91
2023-07-06T23:32:13.688Z,100901.22
2023-07-06T23:34:44.769Z,100908.88
2023-07-06T23:37:15.135Z,100910.84
2023-07-06T23:39:47.731Z,100903.19
2023-07-06T23:42:20.874Z,100911.97
2023-07-06T23:44:51.338Z,100913.09
2023-07-06T23:47:21.571Z,100914.25
2023-07-06T23:49:51.775Z,100909.84
2023-07-06T23:52:23.660Z,100907.56
2023-07-06T23:54:53.885Z,100909.06
2023-07-06T23:57:24.244Z,100914.59
2023-07-06T23:59:54.392Z,100918.16
